createdAt,value
2018-11-27T00:01:10.034Z,37.70
2018-11-27T00:03:42.904Z,38.17
2018-11-27T00:06:10.010Z,37.25
2018-11-27T00:08:37.167Z,37.00
2018-11-27T00:11:04.301Z,38.70
2018-11-27T00:13:31.408Z,37.83
2018-11-27T00:15:58.502Z,37.03
2018-11-27T00:18:25.606Z,35.48
2018-11-27T00:20:52.748Z,36.55
2018-11-27T00:23:19.854Z,36.35
2018-11-27T00:25:46.939Z,34.77
2018-11-27T00:28:14.058Z,35.43
2018-11-27T00:30:41.162Z,36.15
2018-11-27T00:33:08.255Z,35.83
2018-11-27T00:35:35.359Z,34.45
2018-11-27T00:38:02.542Z,37.20
2018-11-27T00:40:29.704Z,35.60
2018-11-27T00:42:56.851Z,36.17
2018-11-27T00:45:23.986Z,34.50
2018-11-27T00:47:51.158Z,37.83
2018-11-27T00:50:20.727Z,35.80
2018-11-27T00:52:47.859Z,36.73
2018-11-27T00:55:16.051Z,35.58
2018-11-27T00:57:44.115Z,35.95
2018-11-27T01:00:13.414Z,35.70
2018-11-27T01:02:40.546Z,37.93
2018-11-27T01:05:10.906Z,35.37
2018-11-27T01:07:38.039Z,37.00
2018-11-27T01:10:07.747Z,35.50
2018-11-27T01:12:34.833Z,36.00
2018-11-27T01:15:01.947Z,35.20
2018-11-27T01:17:29.049Z,35.40
2018-11-27T01:19:56.155Z,35.13
2018-11-27T01:22:23.273Z,35.30
2018-11-27T01:24:50.390Z,34.90
2018-11-27T01:27:17.498Z,36.08
2018-11-27T01:29:44.591Z,37.40
2018-11-27T01:32:11.698Z,36.13
2018-11-27T01:34:39.087Z,35.43
2018-11-27T01:37:06.198Z,34.95
2018-11-27T01:39:33.295Z,37.17
2018-11-27T01:42:00.403Z,36.58
2018-11-27T01:44:27.517Z,35.08
2018-11-27T01:46:54.626Z,34.88
2018-11-27T01:49:21.740Z,35.13
2018-11-27T01:51:48.833Z,34.83
2018-11-27T01:54:15.939Z,37.08
2018-11-27T01:56:43.035Z,34.45
2018-11-27T01:59:10.137Z,37.58
2018-11-27T02:01:37.247Z,36.68
2018-11-27T02:04:05.184Z,35.13
2018-11-27T02:06:32.306Z,35.20
2018-11-27T02:08:59.415Z,36.98
2018-11-27T02:11:26.518Z,36.10
2018-11-27T02:13:53.602Z,36.25
2018-11-27T02:16:20.698Z,35.68
2018-11-27T02:18:47.867Z,37.10
2018-11-27T02:21:15.600Z,36.35
2018-11-27T02:23:42.724Z,36.35
2018-11-27T02:26:09.823Z,36.45
2018-11-27T02:28:36.926Z,34.40
2018-11-27T02:31:04.162Z,35.37
2018-11-27T02:33:31.279Z,33.33
2018-11-27T02:35:58.394Z,35.50
2018-11-27T02:38:25.491Z,35.23
2018-11-27T02:40:52.598Z,35.80
2018-11-27T02:43:19.710Z,36.03
2018-11-27T02:45:46.812Z,34.90
2018-11-27T02:48:13.918Z,35.10
2018-11-27T02:50:41.026Z,35.43
2018-11-27T02:53:08.113Z,35.58
2018-11-27T02:55:35.206Z,36.98
2018-11-27T02:58:02.315Z,36.77
2018-11-27T03:00:29.432Z,36.00
2018-11-27T03:02:56.543Z,38.05
2018-11-27T03:05:28.189Z,35.10
2018-11-27T03:07:55.334Z,35.90
2018-11-27T03:10:22.501Z,37.60
2018-11-27T03:12:50.196Z,36.67
2018-11-27T03:15:17.567Z,34.63
2018-11-27T03:17:44.714Z,37.03
2018-11-27T03:20:13.938Z,36.27
2018-11-27T03:22:41.063Z,37.35
2018-11-27T03:25:10.546Z,35.68
2018-11-27T03:27:37.983Z,36.17
2018-11-27T03:30:11.008Z,35.97
2018-11-27T03:32:38.154Z,35.28
2018-11-27T03:35:07.526Z,36.65
2018-11-27T03:37:34.633Z,34.95
2018-11-27T03:40:01.727Z,36.63
2018-11-27T03:42:28.855Z,35.35
2018-11-27T03:44:55.942Z,34.90
2018-11-27T03:47:23.054Z,36.75
2018-11-27T03:49:50.164Z,35.52
2018-11-27T03:52:17.272Z,36.75
2018-11-27T03:54:44.379Z,37.03
2018-11-27T03:57:11.478Z,35.83
2018-11-27T03:59:38.802Z,35.90
2018-11-27T04:02:05.966Z,33.43
2018-11-27T04:04:33.066Z,36.17
2018-11-27T04:07:00.186Z,36.23
2018-11-27T04:09:27.294Z,36.40
2018-11-27T04:11:54.379Z,36.03
2018-11-27T04:14:21.466Z,36.53
2018-11-27T04:16:48.550Z,35.48
2018-11-27T04:19:15.627Z,35.63
2018-11-27T04:21:42.734Z,34.60
2018-11-27T04:24:09.822Z,34.30
2018-11-27T04:26:36.927Z,36.93
2018-11-27T04:29:04.108Z,36.37
2018-11-27T04:31:31.214Z,34.95
2018-11-27T04:33:58.338Z,34.00
2018-11-27T04:36:25.434Z,36.83
2018-11-27T04:38:52.542Z,36.38
2018-11-27T04:41:19.656Z,35.85
2018-11-27T04:43:46.822Z,34.70
2018-11-27T04:46:13.956Z,36.35
2018-11-27T04:48:41.082Z,35.97
2018-11-27T04:51:08.164Z,33.57
2018-11-27T04:53:35.275Z,36.35
2018-11-27T04:56:02.390Z,34.77
2018-11-27T04:58:29.555Z,34.73
2018-11-27T05:00:56.666Z,36.65
2018-11-27T05:03:23.750Z,36.13
2018-11-27T05:05:50.825Z,36.57
2018-11-27T05:08:17.915Z,33.77
2018-11-27T05:10:44.994Z,34.17
2018-11-27T05:13:12.095Z,35.20
2018-11-27T05:15:39.194Z,36.63
2018-11-27T05:18:06.302Z,35.23
2018-11-27T05:20:33.395Z,35.53
2018-11-27T05:23:00.488Z,33.97
2018-11-27T05:25:27.582Z,34.60
2018-11-27T05:27:56.045Z,34.43
2018-11-27T05:30:25.322Z,35.43
2018-11-27T05:32:52.434Z,34.60
2018-11-27T05:35:28.506Z,36.10
2018-11-27T05:37:56.274Z,34.83
2018-11-27T05:40:24.109Z,33.42
2018-11-27T05:42:55.518Z,34.57
2018-11-27T05:45:23.355Z,33.87
2018-11-27T05:47:50.563Z,34.77
2018-11-27T05:50:18.021Z,35.13
2018-11-27T05:52:45.195Z,34.80
2018-11-27T05:55:12.761Z,33.85
2018-11-27T05:57:40.228Z,34.50
2018-11-27T06:00:15.339Z,39.03
2018-11-27T06:02:42.463Z,35.63
2018-11-27T06:05:11.429Z,36.28
2018-11-27T06:07:38.535Z,35.03
2018-11-27T06:10:06.974Z,31.85
2018-11-27T06:12:34.058Z,34.67
2018-11-27T06:15:01.160Z,35.70
2018-11-27T06:17:28.267Z,35.40
2018-11-27T06:19:55.358Z,32.97
2018-11-27T06:22:22.502Z,36.08
2018-11-27T06:24:49.578Z,34.87
2018-11-27T06:27:16.661Z,34.53
2018-11-27T06:29:43.775Z,35.50
2018-11-27T06:32:10.881Z,33.60
2018-11-27T06:34:37.962Z,34.70
2018-11-27T06:37:05.353Z,33.87
2018-11-27T06:39:32.472Z,34.67
2018-11-27T06:41:59.561Z,33.70
2018-11-27T06:44:26.659Z,34.35
2018-11-27T06:46:53.780Z,32.55
2018-11-27T06:49:20.862Z,35.20
2018-11-27T06:51:47.938Z,34.73
2018-11-27T06:54:15.051Z,34.63
2018-11-27T06:56:42.151Z,35.47
2018-11-27T06:59:09.239Z,32.50
2018-11-27T07:01:36.355Z,35.30
2018-11-27T07:04:03.485Z,34.92
2018-11-27T07:06:30.587Z,35.75
2018-11-27T07:08:57.713Z,35.35
2018-11-27T07:11:24.818Z,34.75
2018-11-27T07:13:51.927Z,36.23
2018-11-27T07:16:19.035Z,33.83
2018-11-27T07:18:46.131Z,34.93
2018-11-27T07:21:13.226Z,34.93
2018-11-27T07:23:40.327Z,32.73
2018-11-27T07:26:07.459Z,34.85
2018-11-27T07:28:34.571Z,34.88
2018-11-27T07:31:01.680Z,34.67
2018-11-27T07:33:28.798Z,34.00
2018-11-27T07:35:55.906Z,34.92
2018-11-27T07:38:23.006Z,35.87
2018-11-27T07:40:50.188Z,35.17
2018-11-27T07:43:17.314Z,33.77
2018-11-27T07:45:44.401Z,33.77
2018-11-27T07:48:11.486Z,33.80
2018-11-27T07:50:38.602Z,34.97
2018-11-27T07:53:06.176Z,35.48
2018-11-27T07:55:33.283Z,35.30
2018-11-27T07:58:00.402Z,34.27
2018-11-27T08:00:27.735Z,32.80
2018-11-27T08:02:56.064Z,34.55
2018-11-27T08:05:25.571Z,33.80
2018-11-27T08:07:53.849Z,35.30
2018-11-27T08:10:22.135Z,35.53
2018-11-27T08:12:49.221Z,36.70
2018-11-27T08:15:19.502Z,35.00
2018-11-27T08:17:46.641Z,32.78
2018-11-27T08:20:16.055Z,34.77
2018-11-27T08:22:43.180Z,34.25
2018-11-27T08:25:11.581Z,34.08
2018-11-27T08:27:38.709Z,36.00
2018-11-27T08:30:11.551Z,34.13
2018-11-27T08:32:38.890Z,35.03
2018-11-27T08:35:07.959Z,33.93
2018-11-27T08:37:35.050Z,33.70
2018-11-27T08:40:02.170Z,34.90
2018-11-27T08:42:29.275Z,35.30
2018-11-27T08:44:56.358Z,35.63
2018-11-27T08:47:23.463Z,35.00
2018-11-27T08:49:50.578Z,33.27
2018-11-27T08:52:17.666Z,34.30
2018-11-27T08:54:44.772Z,34.23
2018-11-27T08:57:11.878Z,36.73
2018-11-27T08:59:38.975Z,35.60
2018-11-27T09:02:06.078Z,36.53
2018-11-27T09:04:33.195Z,36.10
2018-11-27T09:07:00.303Z,35.57
2018-11-27T09:09:27.433Z,35.07
2018-11-27T09:11:54.526Z,36.10
2018-11-27T09:14:21.632Z,35.23
2018-11-27T09:16:48.811Z,35.47
2018-11-27T09:19:15.934Z,35.37
2018-11-27T09:21:43.031Z,35.27
2018-11-27T09:24:10.120Z,34.27
2018-11-27T09:26:37.226Z,36.43
2018-11-27T09:29:04.887Z,35.60
2018-11-27T09:31:32.003Z,35.30
2018-11-27T09:33:59.106Z,37.07
2018-11-27T09:36:26.207Z,35.43
2018-11-27T09:38:53.322Z,35.33
2018-11-27T09:41:20.501Z,35.27
2018-11-27T09:43:47.602Z,37.27
2018-11-27T09:46:14.708Z,36.57
2018-11-27T09:48:41.814Z,35.83
2018-11-27T09:51:08.918Z,37.37
2018-11-27T09:53:36.026Z,36.63
2018-11-27T09:56:03.124Z,36.23
2018-11-27T09:58:30.227Z,35.17
2018-11-27T10:00:57.346Z,36.47
2018-11-27T10:03:24.446Z,36.67
2018-11-27T10:05:51.558Z,36.03
2018-11-27T10:08:18.662Z,35.03
2018-11-27T10:10:45.787Z,37.13
2018-11-27T10:13:12.890Z,35.33
2018-11-27T10:15:40.003Z,35.17
2018-11-27T10:18:07.116Z,37.00
2018-11-27T10:20:38.380Z,45.43
2018-11-27T10:23:10.559Z,46.67
2018-11-27T10:25:37.671Z,47.50
2018-11-27T10:28:05.452Z,45.07
2018-11-27T10:30:32.818Z,49.03
2018-11-27T10:32:59.923Z,49.93
2018-11-27T10:35:29.507Z,50.27
2018-11-27T10:37:56.694Z,49.97
2018-11-27T10:40:23.807Z,47.60
2018-11-27T10:42:50.965Z,50.27
2018-11-27T10:45:19.106Z,50.13
2018-11-27T10:47:47.360Z,47.67
2018-11-27T10:50:15.454Z,46.83
2018-11-27T10:52:43.786Z,48.30
2018-11-27T10:55:12.170Z,49.60
2018-11-27T10:57:39.335Z,45.80
2018-11-27T11:00:15.632Z,45.37
2018-11-27T11:02:42.782Z,46.73
2018-11-27T11:05:09.914Z,48.80
2018-11-27T11:07:37.019Z,47.43
2018-11-27T11:10:05.374Z,46.90
2018-11-27T11:12:32.466Z,48.47
2018-11-27T11:15:00.342Z,48.30
2018-11-27T11:17:27.435Z,48.33
2018-11-27T11:19:54.538Z,49.83
2018-11-27T11:22:21.626Z,50.07
2018-11-27T11:24:48.739Z,50.07
2018-11-27T11:27:15.830Z,50.43
2018-11-27T11:29:42.930Z,46.80
2018-11-27T11:32:10.038Z,47.37
2018-11-27T11:34:37.146Z,48.07
2018-11-27T11:37:04.290Z,49.57
2018-11-27T11:39:31.406Z,51.33
2018-11-27T11:41:58.507Z,51.43
2018-11-27T11:44:25.603Z,49.50
2018-11-27T11:46:52.726Z,50.37
2018-11-27T11:49:19.832Z,52.03
2018-11-27T11:51:46.918Z,52.50
2018-11-27T11:54:14.043Z,51.37
2018-11-27T11:56:41.166Z,52.80
2018-11-27T11:59:08.281Z,54.70
2018-11-27T12:01:35.418Z,53.07
2018-11-27T12:04:02.522Z,53.40
2018-11-27T12:06:29.610Z,56.60
2018-11-27T12:08:56.693Z,58.47
2018-11-27T12:11:23.794Z,55.70
2018-11-27T12:13:50.910Z,59.50
2018-11-27T12:16:18.010Z,60.93
2018-11-27T12:18:45.115Z,59.43
2018-11-27T12:21:12.215Z,60.80
2018-11-27T12:23:39.314Z,60.07
2018-11-27T12:26:06.415Z,63.20
2018-11-27T12:28:33.514Z,63.57
2018-11-27T12:31:00.629Z,62.03
2018-11-27T12:33:27.762Z,62.73
2018-11-27T12:35:54.910Z,62.60
2018-11-27T12:38:22.021Z,61.30
2018-11-27T12:40:49.112Z,59.87
2018-11-27T12:43:16.239Z,57.63
2018-11-27T12:45:43.389Z,53.03
2018-11-27T12:48:10.517Z,52.70
2018-11-27T12:50:40.862Z,53.73
2018-11-27T12:53:09.544Z,56.13
2018-11-27T12:55:38.227Z,56.57
2018-11-27T12:58:06.092Z,57.73
2018-11-27T13:00:33.209Z,55.03
2018-11-27T13:03:00.320Z,58.43
2018-11-27T13:05:28.043Z,56.57
2018-11-27T13:08:01.452Z,56.93
2018-11-27T13:10:28.626Z,57.97
2018-11-27T13:12:55.798Z,56.13
2018-11-27T13:15:22.907Z,54.53
2018-11-27T13:17:50.859Z,47.40
2018-11-27T13:20:18.604Z,47.57
2018-11-27T13:22:46.090Z,47.67
2018-11-27T13:25:18.482Z,50.97
2018-11-27T13:27:45.714Z,55.60
2018-11-27T13:30:21.718Z,55.17
2018-11-27T13:32:56.486Z,54.57
2018-11-27T13:35:23.599Z,53.83
2018-11-27T13:37:50.714Z,53.20
2018-11-27T13:40:17.835Z,53.67
2018-11-27T13:42:44.970Z,53.87
2018-11-27T13:45:13.405Z,54.97
2018-11-27T13:47:41.030Z,52.60
2018-11-27T13:50:10.562Z,49.23
2018-11-27T13:52:38.218Z,50.50
2018-11-27T13:55:08.771Z,53.17
2018-11-27T13:57:35.886Z,51.63
2018-11-27T14:00:03.859Z,50.93
2018-11-27T14:02:30.958Z,53.23
2018-11-27T14:04:58.091Z,52.67
2018-11-27T14:07:25.194Z,53.67
2018-11-27T14:09:52.291Z,54.17
2018-11-27T14:12:19.412Z,52.27
2018-11-27T14:14:46.506Z,53.43
2018-11-27T14:17:13.619Z,53.03
2018-11-27T14:19:40.716Z,53.00
2018-11-27T14:22:07.860Z,53.87
2018-11-27T14:24:34.947Z,53.50
2018-11-27T14:27:02.474Z,50.97
2018-11-27T14:29:29.576Z,53.40
2018-11-27T14:31:56.679Z,52.30
2018-11-27T14:34:23.770Z,52.77
2018-11-27T14:36:50.898Z,54.83
2018-11-27T14:39:17.995Z,52.67
2018-11-27T14:41:45.107Z,52.10
2018-11-27T14:44:12.230Z,54.03
2018-11-27T14:46:39.347Z,54.73
2018-11-27T14:49:06.446Z,53.10
2018-11-27T14:51:33.539Z,53.97
2018-11-27T14:54:00.642Z,53.03
2018-11-27T14:56:27.762Z,50.67
2018-11-27T14:58:54.850Z,53.90
2018-11-27T15:01:21.979Z,53.60
2018-11-27T15:03:49.087Z,53.50
2018-11-27T15:06:16.196Z,52.50
2018-11-27T15:08:43.295Z,52.60
2018-11-27T15:11:12.718Z,52.20
2018-11-27T15:13:37.494Z,52.07
2018-11-27T15:16:04.677Z,52.30
2018-11-27T15:18:31.794Z,54.97
2018-11-27T15:20:58.903Z,53.03
2018-11-27T15:23:26.018Z,53.67
2018-11-27T15:25:53.130Z,53.00
2018-11-27T15:28:20.226Z,50.40
2018-11-27T15:30:47.338Z,51.17
2018-11-27T15:33:18.627Z,50.53
2018-11-27T15:35:41.567Z,52.63
2018-11-27T15:38:08.702Z,52.63
2018-11-27T15:40:37.090Z,50.53
2018-11-27T15:43:04.664Z,50.90
2018-11-27T15:45:33.465Z,51.27
2018-11-27T15:48:01.330Z,51.83
2018-11-27T15:50:28.445Z,50.80
2018-11-27T15:52:55.575Z,51.63
2018-11-27T15:55:29.846Z,52.80
2018-11-27T15:57:59.354Z,49.83
2018-11-27T16:00:26.478Z,52.20
2018-11-27T16:02:53.614Z,52.43
2018-11-27T16:05:20.739Z,51.67
2018-11-27T16:07:47.855Z,51.30
2018-11-27T16:10:16.165Z,51.57
2018-11-27T16:12:43.276Z,51.53
2018-11-27T16:15:15.805Z,50.57
2018-11-27T16:17:43.019Z,50.97
2018-11-27T16:20:12.122Z,51.10
2018-11-27T16:22:40.273Z,49.10
2018-11-27T16:25:09.371Z,51.63
2018-11-27T16:27:36.479Z,51.20
2018-11-27T16:30:09.924Z,50.98
2018-11-27T16:32:37.158Z,50.15
2018-11-27T16:35:04.934Z,50.88
2018-11-27T16:37:32.016Z,51.37
2018-11-27T16:39:59.127Z,50.05
2018-11-27T16:42:30.550Z,52.90
2018-11-27T16:44:53.387Z,51.80
2018-11-27T16:47:20.498Z,52.48
2018-11-27T16:49:47.610Z,49.18
2018-11-27T16:52:14.754Z,50.33
2018-11-27T16:54:41.850Z,51.60
2018-11-27T16:57:08.950Z,50.43
2018-11-27T16:59:36.059Z,49.05
2018-11-27T17:02:03.171Z,51.88
2018-11-27T17:04:30.289Z,52.95
2018-11-27T17:06:57.410Z,50.73
2018-11-27T17:09:24.515Z,52.55
2018-11-27T17:11:51.606Z,51.13
2018-11-27T17:14:18.748Z,52.33
2018-11-27T17:16:45.856Z,54.88
2018-11-27T17:19:12.951Z,53.68
2018-11-27T17:21:40.050Z,51.20
2018-11-27T17:24:07.166Z,52.48
2018-11-27T17:26:34.283Z,52.13
2018-11-27T17:29:01.393Z,54.70
2018-11-27T17:31:28.506Z,52.83
2018-11-27T17:34:01.027Z,51.58
2018-11-27T17:36:28.158Z,53.23
2018-11-27T17:38:55.270Z,55.15
2018-11-27T17:41:22.371Z,54.35
2018-11-27T17:43:49.475Z,57.33
2018-11-27T17:46:16.588Z,56.40
2018-11-27T17:48:43.773Z,56.95
2018-11-27T17:51:10.864Z,54.38
2018-11-27T17:53:37.973Z,54.05
2018-11-27T17:56:05.109Z,55.12
2018-11-27T17:58:32.214Z,56.05
2018-11-27T18:00:59.356Z,54.40
2018-11-27T18:03:26.470Z,54.10
2018-11-27T18:05:53.590Z,52.95
2018-11-27T18:08:20.715Z,53.83
2018-11-27T18:10:47.819Z,54.30
2018-11-27T18:13:14.998Z,53.50
2018-11-27T18:15:42.095Z,54.20
2018-11-27T18:18:09.199Z,54.48
2018-11-27T18:20:36.298Z,52.38
2018-11-27T18:23:03.467Z,52.00
2018-11-27T18:25:30.571Z,52.48
2018-11-27T18:27:57.707Z,53.42
2018-11-27T18:30:24.816Z,53.90
2018-11-27T18:32:51.933Z,55.55
2018-11-27T18:35:21.262Z,54.40
2018-11-27T18:37:48.799Z,54.42
2018-11-27T18:40:16.591Z,53.25
2018-11-27T18:42:43.890Z,51.37
2018-11-27T18:45:16.199Z,53.15
2018-11-27T18:47:43.430Z,53.63
2018-11-27T18:50:10.966Z,48.02
2018-11-27T18:52:38.226Z,50.85
2018-11-27T18:55:10.205Z,50.80
2018-11-27T18:57:37.341Z,51.55
2018-11-27T19:00:10.318Z,50.98
2018-11-27T19:02:37.423Z,49.95
2018-11-27T19:05:05.161Z,51.13
2018-11-27T19:07:32.258Z,49.98
2018-11-27T19:09:59.367Z,47.80
2018-11-27T19:12:26.466Z,52.60
2018-11-27T19:14:53.578Z,51.33
2018-11-27T19:17:20.686Z,50.08
2018-11-27T19:19:47.790Z,50.67
2018-11-27T19:22:14.924Z,49.98
2018-11-27T19:24:42.063Z,47.08
2018-11-27T19:27:09.166Z,47.00
2018-11-27T19:29:36.262Z,45.38
2018-11-27T19:32:03.426Z,43.50
2018-11-27T19:34:30.522Z,43.42
2018-11-27T19:36:57.622Z,41.30
2018-11-27T19:39:24.710Z,42.38
2018-11-27T19:41:51.854Z,39.58
2018-11-27T19:44:18.939Z,40.95
2018-11-27T19:46:46.037Z,39.45
2018-11-27T19:49:13.131Z,37.95
2018-11-27T19:51:40.238Z,37.25
2018-11-27T19:54:07.354Z,35.70
2018-11-27T19:56:34.443Z,34.43
2018-11-27T19:59:01.543Z,34.85
2018-11-27T20:01:28.657Z,33.67
2018-11-27T20:03:55.776Z,35.38
2018-11-27T20:06:22.878Z,33.13
2018-11-27T20:08:49.976Z,33.38
2018-11-27T20:11:17.091Z,31.65
2018-11-27T20:13:44.194Z,30.92
2018-11-27T20:16:11.377Z,30.65
2018-11-27T20:18:38.482Z,30.77
2018-11-27T20:21:05.934Z,30.17
2018-11-27T20:23:33.030Z,31.07
2018-11-27T20:26:00.132Z,29.18
2018-11-27T20:28:27.249Z,28.73
2018-11-27T20:30:54.347Z,29.50
2018-11-27T20:33:21.450Z,29.10
2018-11-27T20:35:48.555Z,27.48
2018-11-27T20:38:15.671Z,25.88
2018-11-27T20:40:42.812Z,25.82
2018-11-27T20:43:09.926Z,25.43
2018-11-27T20:45:37.030Z,25.30
2018-11-27T20:48:18.099Z,25.68
2018-11-27T20:50:46.634Z,25.00
2018-11-27T20:53:13.753Z,23.57
2018-11-27T20:55:41.213Z,24.35
2018-11-27T20:58:08.320Z,23.90
2018-11-27T21:00:36.671Z,24.07
2018-11-27T21:03:04.538Z,22.93
2018-11-27T21:05:31.654Z,23.65
2018-11-27T21:07:58.774Z,23.87
2018-11-27T21:10:25.898Z,23.77
2018-11-27T21:12:53.011Z,24.37
2018-11-27T21:15:20.134Z,25.40
2018-11-27T21:17:47.291Z,25.02
2018-11-27T21:20:15.668Z,24.60
2018-11-27T21:22:42.826Z,24.02
2018-11-27T21:25:26.702Z,24.18
2018-11-27T21:28:06.349Z,23.50
2018-11-27T21:30:33.622Z,24.30
2018-11-27T21:33:00.719Z,22.50
2018-11-27T21:35:27.827Z,23.65
2018-11-27T21:37:54.968Z,21.97
2018-11-27T21:40:22.128Z,23.05
2018-11-27T21:42:49.292Z,22.82
2018-11-27T21:45:20.627Z,22.70
2018-11-27T21:47:48.444Z,24.00
2018-11-27T21:50:16.751Z,23.05
2018-11-27T21:52:43.862Z,23.77
2018-11-27T21:55:12.089Z,23.15
2018-11-27T21:57:39.203Z,23.55
2018-11-27T22:00:13.126Z,22.62
2018-11-27T22:02:40.298Z,22.60
2018-11-27T22:05:08.040Z,23.05
2018-11-27T22:07:35.263Z,22.13
2018-11-27T22:10:03.102Z,23.35
2018-11-27T22:12:30.190Z,21.90
2018-11-27T22:14:57.291Z,22.42
2018-11-27T22:17:24.391Z,22.00
2018-11-27T22:19:51.510Z,22.45
2018-11-27T22:22:18.615Z,22.35
2018-11-27T22:24:45.746Z,22.82
2018-11-27T22:27:12.840Z,21.93
2018-11-27T22:29:39.928Z,22.07
2018-11-27T22:32:07.023Z,21.93
2018-11-27T22:34:34.135Z,23.30
2018-11-27T22:37:01.255Z,22.98
2018-11-27T22:39:28.358Z,21.65
2018-11-27T22:41:55.460Z,21.68
2018-11-27T22:44:22.546Z,22.35
2018-11-27T22:46:49.713Z,21.87
2018-11-27T22:49:16.827Z,22.15
2018-11-27T22:51:43.942Z,22.32
2018-11-27T22:54:11.046Z,21.95
2018-11-27T22:56:38.194Z,23.00
2018-11-27T22:59:05.338Z,24.27
2018-11-27T23:01:37.505Z,22.77
2018-11-27T23:04:06.381Z,22.85
2018-11-27T23:06:33.475Z,21.90
2018-11-27T23:09:00.566Z,22.85
2018-11-27T23:11:27.651Z,23.55
2018-11-27T23:13:54.743Z,23.12
2018-11-27T23:16:21.859Z,23.95
2018-11-27T23:18:48.943Z,22.70
2018-11-27T23:21:16.055Z,22.70
2018-11-27T23:23:43.143Z,23.90
2018-11-27T23:26:10.249Z,22.67
2018-11-27T23:28:37.349Z,23.22
2018-11-27T23:31:05.065Z,23.65
2018-11-27T23:33:31.915Z,23.25
2018-11-27T23:35:59.028Z,22.62
2018-11-27T23:38:26.138Z,23.18
2018-11-27T23:40:53.266Z,22.07
2018-11-27T23:43:20.386Z,24.07
2018-11-27T23:45:47.492Z,22.60
2018-11-27T23:48:14.582Z,22.77
2018-11-27T23:50:41.683Z,23.20
2018-11-27T23:53:08.783Z,23.40
2018-11-27T23:55:35.871Z,22.05
2018-11-27T23:58:02.994Z,24.07
